Time;durP1;ratioP1;P1;durP2;ratioP2;P2;SDS_P1;SDS_P2;PMS_P1;PMS_P2;Temp;Humidity;BMP_temperature;BMP_pressure;BME280_temperature;BME280_humidity;BME280_pressure;Samples;Min_cycle;Max_cycle;Signal;HPM_P1;HPM_P2
2021/05/18 00:01:05;;;;;;;6.65;4.97;;;7.30;99.90;;;;;;4992826;28;20203;-72
2021/05/18 00:03:31;;;;;;;7.22;4.60;;;7.30;99.90;;;;;;4994783;28;20227;-72
2021/05/18 00:05:59;;;;;;;6.97;4.60;;;7.20;99.90;;;;;;4994624;28;20222;-72
2021/05/18 00:08:26;;;;;;;7.00;4.68;;;7.20;99.90;;;;;;4997349;28;20203;-72
2021/05/18 00:13:45;;;;;;;6.78;4.57;;;7.30;99.90;;;;;;4996763;28;20220;-72
2021/05/18 00:16:11;;;;;;;21.05;5.35;;;7.30;99.90;;;;;;4991897;28;20191;-71
2021/05/18 00:18:37;;;;;;;9.77;5.00;;;7.30;99.90;;;;;;4994903;28;20305;-71
2021/05/18 00:21:05;;;;;;;9.85;5.03;;;7.30;99.90;;;;;;4999095;28;20184;-71
2021/05/18 00:23:30;;;;;;;7.22;4.72;;;7.30;99.90;;;;;;4995417;28;20199;-71
2021/05/18 00:25:57;;;;;;;8.80;5.10;;;7.30;99.90;;;;;;4995258;28;20197;-72
2021/05/18 00:28:22;;;;;;;7.85;4.85;;;7.40;99.90;;;;;;4995486;28;20208;-71
2021/05/18 00:30:49;;;;;;;8.85;4.70;;;7.40;99.90;;;;;;4993643;28;20214;-71
2021/05/18 00:33:21;;;;;;;11.77;4.75;;;7.40;99.90;;;;;;4993548;28;20207;-72
2021/05/18 00:35:48;;;;;;;7.45;4.90;;;7.40;99.90;;;;;;4995412;28;20282;-72
2021/05/18 00:38:16;;;;;;;6.68;4.60;;;7.30;99.90;;;;;;4994364;28;20199;-72
2021/05/18 00:40:43;;;;;;;8.32;4.30;;;7.30;99.90;;;;;;4993840;28;20888;-72
2021/05/18 00:43:10;;;;;;;8.50;5.35;;;7.30;99.90;;;;;;4995849;28;20262;-72
2021/05/18 00:45:40;;;;;;;9.98;4.97;;;7.30;99.90;;;;;;4998447;28;20195;-72
2021/05/18 00:48:07;;;;;;;7.82;4.88;;;7.30;99.90;;;;;;4997186;28;20271;-72
2021/05/18 00:50:35;;;;;;;8.88;4.93;;;7.30;99.90;;;;;;4995347;28;20214;-71
2021/05/18 00:53:01;;;;;;;7.63;5.40;;;7.30;99.90;;;;;;4996040;28;20211;-72
2021/05/18 01:00:41;;;;;;;7.63;5.20;;;7.40;99.90;;;;;;4993243;28;20202;-72
2021/05/18 01:03:07;;;;;;;8.30;4.75;;;7.50;99.90;;;;;;4994578;28;20274;-71
2021/05/18 01:08:17;;;;;;;8.57;5.20;;;7.50;99.90;;;;;;5002185;28;20237;-71
2021/05/18 01:10:44;;;;;;;8.80;5.75;;;7.50;99.90;;;;;;5004111;28;20221;-72
2021/05/18 01:13:10;;;;;;;8.75;5.55;;;7.60;99.90;;;;;;5001334;28;20570;-72
2021/05/18 01:15:38;;;;;;;8.85;5.13;;;7.60;99.90;;;;;;4995717;28;20199;-71
2021/05/18 01:18:05;;;;;;;8.77;5.53;;;7.60;99.90;;;;;;4999342;28;20195;-72
2021/05/18 01:20:31;;;;;;;10.65;5.30;;;7.60;99.90;;;;;;5001257;28;20732;-72
2021/05/18 01:22:57;;;;;;;12.82;6.03;;;7.50;99.90;;;;;;5000651;28;20194;-72
2021/05/18 01:25:23;;;;;;;8.35;5.15;;;7.50;99.90;;;;;;4999077;28;20199;-72
2021/05/18 01:27:49;;;;;;;8.90;4.90;;;7.50;99.90;;;;;;4996686;28;21005;-72
2021/05/18 01:30:16;;;;;;;10.07;5.80;;;7.50;99.90;;;;;;4999685;28;20300;-74
2021/05/18 01:32:43;;;;;;;9.90;5.50;;;7.50;99.90;;;;;;4996631;28;20195;-72
2021/05/18 01:35:11;;;;;;;7.85;5.60;;;7.50;99.90;;;;;;4999552;28;20206;-72
2021/05/18 01:37:38;;;;;;;7.93;5.32;;;7.50;99.90;;;;;;4999885;28;20234;-73
2021/05/18 01:42:47;;;;;;;8.88;5.18;;;7.50;99.90;;;;;;4999932;28;20191;-72
2021/05/18 01:45:16;;;;;;;8.57;5.63;;;7.50;99.90;;;;;;5000645;28;20811;-72
2021/05/18 01:47:49;;;;;;;8.07;5.70;;;7.50;99.90;;;;;;5002060;28;20256;-72
2021/05/18 01:50:16;;;;;;;8.65;5.30;;;7.50;99.90;;;;;;4999857;28;20199;-72
2021/05/18 01:52:42;;;;;;;8.20;5.18;;;7.50;99.90;;;;;;4996143;28;20192;-73
2021/05/18 01:55:09;;;;;;;11.25;6.03;;;7.50;99.90;;;;;;5003515;28;20297;-72
2021/05/18 01:57:35;;;;;;;7.38;5.13;;;7.50;99.90;;;;;;5000156;28;20199;-72
2021/05/18 02:00:03;;;;;;;11.90;5.75;;;7.50;99.90;;;;;;5001318;28;20268;-73
2021/05/18 02:02:29;;;;;;;8.77;5.93;;;7.50;99.90;;;;;;5000735;28;20609;-72
2021/05/18 02:04:58;;;;;;;9.40;6.15;;;7.50;99.90;;;;;;5001363;28;20253;-73
2021/05/18 02:07:33;;;;;;;10.25;5.95;;;7.50;99.90;;;;;;4997566;28;20694;-72
2021/05/18 02:09:59;;;;;;;10.90;7.00;;;7.50;99.90;;;;;;5000142;28;20671;-73
2021/05/18 02:12:25;;;;;;;10.32;6.70;;;7.50;99.90;;;;;;4998901;28;20195;-72
2021/05/18 02:15:02;;;;;;;35.35;8.57;;;7.50;99.90;;;;;;5013263;28;20214;-72
2021/05/18 02:17:35;;;;;;;23.85;9.10;;;7.50;99.90;;;;;;4994958;28;20198;-72
2021/05/18 02:25:37;;;;;;;12.73;7.65;;;7.50;99.90;;;;;;4981420;28;20213;-72
2021/05/18 02:28:03;;;;;;;13.80;7.85;;;7.50;99.90;;;;;;4998639;28;20234;-73
2021/05/18 02:30:29;;;;;;;13.75;7.57;;;7.50;99.90;;;;;;5000475;28;20731;-72
2021/05/18 02:32:55;;;;;;;22.45;9.77;;;7.50;99.90;;;;;;5003083;28;20199;-73
2021/05/18 02:35:21;;;;;;;17.30;9.75;;;7.50;99.90;;;;;;4997249;28;20204;-73
2021/05/18 02:37:48;;;;;;;27.10;11.00;;;7.60;99.90;;;;;;5000784;28;20214;-72
2021/05/18 02:40:21;;;;;;;28.75;10.60;;;7.70;99.90;;;;;;4997403;28;20211;-72
2021/05/18 02:42:48;;;;;;;19.70;10.18;;;7.70;99.90;;;;;;5000292;28;20246;-72
2021/05/18 02:45:31;;;;;;;22.60;9.63;;;7.80;99.90;;;;;;5001820;28;20827;-72
2021/05/18 02:50:42;;;;;;;19.65;10.75;;;7.90;99.90;;;;;;4998269;28;20226;-73
2021/05/18 02:53:08;;;;;;;18.60;10.10;;;7.90;99.90;;;;;;4996048;28;20235;-73
2021/05/18 02:58:11;;;;;;;20.98;9.60;;;8.00;99.90;;;;;;4999899;28;20190;-72
2021/05/18 03:00:37;;;;;;;31.42;11.77;;;8.00;99.90;;;;;;4998772;28;20298;-72
2021/05/18 03:03:03;;;;;;;21.23;10.90;;;8.10;99.90;;;;;;5000518;28;20956;-72
2021/05/18 03:05:28;;;;;;;21.00;11.10;;;8.10;99.90;;;;;;5000373;28;20226;-72
2021/05/18 03:07:54;;;;;;;19.92;10.60;;;8.10;99.90;;;;;;4999098;28;20213;-73
2021/05/18 03:10:21;;;;;;;21.98;11.63;;;8.10;99.90;;;;;;4996524;28;20202;-73
2021/05/18 03:12:48;;;;;;;28.10;11.35;;;8.20;99.90;;;;;;4999152;28;20211;-72
2021/05/18 03:15:15;;;;;;;27.08;11.35;;;8.20;99.90;;;;;;4992768;28;20611;-72
2021/05/18 03:17:41;;;;;;;25.95;11.10;;;8.30;99.90;;;;;;4995873;28;21069;-72
2021/05/18 03:20:10;;;;;;;22.35;10.70;;;8.30;99.90;;;;;;4998141;28;20277;-73
2021/05/18 03:22:36;;;;;;;27.52;10.38;;;8.40;99.90;;;;;;4997698;28;20218;-72
2021/05/18 03:25:04;;;;;;;18.65;9.82;;;8.40;99.90;;;;;;4998289;28;20210;-72
2021/05/18 03:27:30;;;;;;;22.38;10.55;;;8.50;99.90;;;;;;4996391;28;20203;-73
2021/05/18 03:29:59;;;;;;;19.05;10.32;;;8.50;99.90;;;;;;4998530;28;20225;-71
2021/05/18 03:35:09;;;;;;;19.17;10.65;;;8.60;99.90;;;;;;4998660;28;20209;-73
2021/05/18 03:37:56;;;;;;;19.30;10.75;;;8.60;99.90;;;;;;4997375;28;20206;-73
2021/05/18 03:40:23;;;;;;;19.67;9.65;;;8.70;99.90;;;;;;4999317;28;20272;-72
2021/05/18 03:43:00;;;;;;;16.65;9.30;;;8.70;99.90;;;;;;4999642;28;20199;-73
2021/05/18 03:45:29;;;;;;;14.25;8.70;;;8.70;99.90;;;;;;4999646;28;20665;-73
2021/05/18 03:53:50;;;;;;;18.08;8.90;;;8.80;99.90;;;;;;4996029;28;20253;-73
2021/05/18 04:04:23;;;;;;;23.23;10.45;;;8.90;99.90;;;;;;4995690;28;20640;-72
2021/05/18 04:17:51;;;;;;;25.23;11.40;;;8.80;99.90;;;;;;5000791;28;20201;-73
2021/05/18 04:51:59;;;;;;;13.05;7.70;;;9.50;99.90;;;;;;5000257;28;20648;-74
2021/05/18 05:00:05;;;;;;;13.52;8.05;;;9.50;99.90;;;;;;5000405;28;20261;-74
2021/05/18 05:07:58;;;;;;;14.52;8.60;;;9.50;99.90;;;;;;4994553;28;20206;-73
2021/05/18 05:16:01;;;;;;;14.95;8.30;;;9.90;99.90;;;;;;4995422;28;20206;-72
2021/05/18 05:18:27;;;;;;;14.35;7.93;;;9.90;99.90;;;;;;4996151;28;20565;-72
2021/05/18 05:20:52;;;;;;;13.00;8.38;;;9.90;99.90;;;;;;4995320;28;20202;-72
2021/05/18 05:23:18;;;;;;;16.05;8.43;;;9.80;99.90;;;;;;5000975;28;20232;-72
2021/05/18 05:25:44;;;;;;;12.27;7.72;;;9.80;99.90;;;;;;4992205;28;20207;-73
2021/05/18 05:28:10;;;;;;;13.63;8.05;;;9.90;99.90;;;;;;5000892;28;20604;-73
2021/05/18 05:30:36;;;;;;;13.65;8.15;;;9.90;99.90;;;;;;4991397;28;20207;-73
2021/05/18 05:33:03;;;;;;;13.93;7.85;;;9.90;99.90;;;;;;4994726;28;20206;-73
2021/05/18 05:35:29;;;;;;;14.30;7.60;;;9.90;99.90;;;;;;4992009;28;20195;-73
2021/05/18 05:37:56;;;;;;;16.38;9.02;;;9.80;99.90;;;;;;4999311;28;20700;-73
2021/05/18 05:40:24;;;;;;;15.75;9.10;;;9.80;99.90;;;;;;4995515;28;20230;-72
2021/05/18 05:42:50;;;;;;;14.35;8.43;;;9.90;99.90;;;;;;4999281;28;20194;-72
2021/05/18 05:45:16;;;;;;;13.50;8.35;;;10.00;99.90;;;;;;4994425;28;20198;-73
2021/05/18 05:47:41;;;;;;;13.23;8.13;;;10.10;99.90;;;;;;4995735;28;20277;-74
2021/05/18 05:50:09;;;;;;;14.95;9.00;;;10.10;99.90;;;;;;4991066;28;20196;-72
2021/05/18 05:52:35;;;;;;;13.65;8.30;;;10.20;99.90;;;;;;4993050;28;20221;-72
2021/05/18 05:55:01;;;;;;;11.25;7.38;;;10.40;99.90;;;;;;4998377;28;20694;-73
2021/05/18 05:57:26;;;;;;;11.02;6.85;;;10.40;99.90;;;;;;4999192;28;20623;-72
2021/05/18 05:59:52;;;;;;;12.32;7.13;;;10.60;99.90;;;;;;4999028;28;20715;-72
2021/05/18 06:02:18;;;;;;;10.40;6.03;;;10.70;99.90;;;;;;5001421;28;20842;-73
2021/05/18 06:04:43;;;;;;;10.18;6.70;;;10.70;99.90;;;;;;4994089;28;20803;-73
2021/05/18 06:07:09;;;;;;;10.30;6.40;;;10.70;99.90;;;;;;5003746;28;20207;-74
2021/05/18 06:09:36;;;;;;;9.75;5.65;;;10.80;99.90;;;;;;4990652;28;20207;-75
2021/05/18 06:49:39;;;;;;;7.15;4.90;;;11.50;99.90;;;;;;4994899;28;20599;-74
2021/05/18 06:52:05;;;;;;;7.90;5.15;;;11.50;99.90;;;;;;4993861;28;20213;-73
2021/05/18 06:54:31;;;;;;;7.22;4.90;;;11.40;99.90;;;;;;5000219;28;20222;-74
2021/05/18 06:57:00;;;;;;;9.68;5.20;;;11.20;99.90;;;;;;4992743;28;20204;-74
2021/05/18 07:01:56;;;;;;;9.07;5.20;;;11.10;99.90;;;;;;4998887;28;20199;-73
2021/05/18 07:04:23;;;;;;;9.30;5.57;;;11.10;99.90;;;;;;4993149;28;20213;-72
2021/05/18 07:07:07;;;;;;;11.55;6.78;;;11.30;99.90;;;;;;4997135;28;20297;-72
2021/05/18 07:09:32;;;;;;;6.53;5.03;;;11.40;99.90;;;;;;4989774;28;20258;-73
2021/05/18 07:11:58;;;;;;;10.55;4.80;;;11.40;99.90;;;;;;4992672;28;20202;-73
2021/05/18 07:14:24;;;;;;;10.30;5.70;;;11.30;99.90;;;;;;4996202;28;20218;-75
2021/05/18 07:16:49;;;;;;;11.13;5.20;;;11.40;99.90;;;;;;4994081;28;20286;-71
2021/05/18 07:19:15;;;;;;;6.53;4.20;;;11.40;99.90;;;;;;4992882;28;20588;-72
2021/05/18 07:21:41;;;;;;;7.10;4.80;;;11.50;99.90;;;;;;4996910;28;20240;-73
2021/05/18 07:24:10;;;;;;;6.10;4.63;;;11.40;99.90;;;;;;4993398;28;20560;-71
2021/05/18 07:26:36;;;;;;;5.25;4.05;;;11.40;99.90;;;;;;4991885;28;20202;-73
2021/05/18 07:29:02;;;;;;;8.75;4.95;;;11.40;99.90;;;;;;4992325;28;20208;-73
2021/05/18 07:31:28;;;;;;;9.52;4.45;;;11.50;99.90;;;;;;4993709;28;20297;-73
2021/05/18 07:33:53;;;;;;;6.10;4.43;;;11.70;99.90;;;;;;4999874;28;20230;-72
2021/05/18 07:36:19;;;;;;;6.57;4.95;;;11.90;99.90;;;;;;4995735;28;20256;-73
2021/05/18 07:38:48;;;;;;;10.38;5.00;;;12.10;99.90;;;;;;5001572;28;20316;-74
2021/05/18 07:41:14;;;;;;;6.35;4.63;;;12.30;99.90;;;;;;4999371;28;20899;-72
2021/05/18 07:43:40;;;;;;;6.00;3.97;;;12.40;99.90;;;;;;4992764;28;20200;-73
2021/05/18 07:46:12;;;;;;;5.45;4.13;;;12.50;99.90;;;;;;4998913;28;20198;-70
2021/05/18 08:07:14;;;;;;;3.90;3.40;;;11.60;99.90;;;;;;4994304;28;20260;-73
2021/05/18 08:09:46;;;;;;;4.85;3.40;;;11.60;99.90;;;;;;4995511;28;20206;-73
2021/05/18 08:12:12;;;;;;;6.15;3.83;;;11.70;99.90;;;;;;4993454;28;20688;-72
2021/05/18 08:14:42;;;;;;;6.50;3.65;;;11.70;99.90;;;;;;4994730;28;20210;-73
2021/05/18 10:15:31;;;;;;;2.75;2.00;;;14.20;99.90;;;;;;4990912;28;20230;-73
2021/05/18 10:35:50;;;;;;;2.17;1.73;;;14.50;99.90;;;;;;4999462;28;20199;-73
2021/05/18 10:38:25;;;;;;;2.03;1.60;;;14.70;99.90;;;;;;4998715;28;20275;-72
2021/05/18 10:41:15;;;;;;;3.72;1.77;;;14.50;99.90;;;;;;4997240;28;20190;-73
2021/05/18 10:43:43;;;;;;;1.63;1.52;;;14.80;99.90;;;;;;4995186;28;20206;-73
2021/05/18 10:46:19;;;;;;;2.22;1.60;;;15.20;99.90;;;;;;4998008;28;20261;-73
2021/05/18 10:48:54;;;;;;;2.28;1.63;;;15.50;99.90;;;;;;4995637;28;20225;-74
2021/05/18 10:51:54;;;;;;;1.83;1.50;;;15.90;99.90;;;;;;4996579;28;20206;-73
2021/05/18 10:54:42;;;;;;;2.88;1.58;;;16.10;99.90;;;;;;4993428;28;20238;-73
2021/05/18 10:57:28;;;;;;;1.58;1.40;;;16.10;99.90;;;;;;4999107;28;20198;-72
2021/05/18 10:59:57;;;;;;;1.92;1.42;;;16.00;99.90;;;;;;4997703;28;20218;-74
2021/05/18 11:02:36;;;;;;;2.60;1.40;;;16.00;99.90;;;;;;4999576;28;20198;-73
2021/05/18 11:05:14;;;;;;;1.45;1.33;;;15.90;99.90;;;;;;4999371;28;20231;-72
2021/05/18 11:07:45;;;;;;;1.80;1.60;;;16.30;99.90;;;;;;5007401;28;20258;-72
2021/05/18 11:10:14;;;;;;;1.60;1.30;;;16.90;99.90;;;;;;4992693;28;20655;-72
2021/05/18 11:12:41;;;;;;;1.77;1.58;;;16.80;99.90;;;;;;4994768;28;20217;-72
2021/05/18 11:15:09;;;;;;;1.70;1.40;;;16.50;99.90;;;;;;4998881;28;20218;-72
2021/05/18 11:17:37;;;;;;;2.08;1.70;;;16.40;99.90;;;;;;5002822;28;20210;-72
2021/05/18 11:20:09;;;;;;;1.50;1.40;;;16.50;99.90;;;;;;4999322;28;20618;-73
2021/05/18 11:25:31;;;;;;;2.00;1.58;;;17.90;99.90;;;;;;4992923;28;20281;-73
2021/05/18 11:28:15;;;;;;;1.75;1.55;;;18.40;99.90;;;;;;4999834;28;20204;-71
2021/05/18 11:30:42;;;;;;;1.60;1.50;;;18.00;99.90;;;;;;5011021;28;20773;-72
2021/05/18 11:33:08;;;;;;;3.15;1.90;;;17.40;99.90;;;;;;4999641;28;20221;-71
2021/05/18 11:35:34;;;;;;;3.08;1.45;;;16.60;99.90;;;;;;4998610;28;20230;-72
2021/05/18 11:38:07;;;;;;;2.28;1.70;;;16.70;99.90;;;;;;5000722;28;20253;-72
2021/05/18 11:40:52;;;;;;;2.30;1.75;;;17.20;99.90;;;;;;4988358;28;20233;-72
2021/05/18 11:43:24;;;;;;;3.35;1.77;;;17.50;99.90;;;;;;4994062;28;20199;-73
2021/05/18 11:46:02;;;;;;;2.13;1.73;;;17.60;99.90;;;;;;4989761;28;20206;-72
2021/05/18 11:48:27;;;;;;;1.52;1.40;;;17.20;99.90;;;;;;4992050;28;20187;-71
2021/05/18 11:51:07;;;;;;;1.58;1.40;;;16.80;99.90;;;;;;4998891;28;20541;-71
2021/05/18 11:53:37;;;;;;;4.00;1.55;;;16.40;99.90;;;;;;4997802;28;20604;-71
2021/05/18 11:56:26;;;;;;;2.00;1.80;;;16.20;99.90;;;;;;5000902;28;20202;-73
2021/05/18 11:59:03;;;;;;;4.18;2.10;;;16.20;99.90;;;;;;5001046;28;20281;-73
2021/05/18 12:01:29;;;;;;;2.95;1.70;;;16.70;99.90;;;;;;4991166;28;20195;-73
2021/05/18 12:04:06;;;;;;;2.67;1.67;;;16.70;99.90;;;;;;4998439;28;20202;-73
2021/05/18 12:06:34;;;;;;;3.97;1.83;;;16.80;99.90;;;;;;5001174;28;20260;-71
2021/05/18 12:09:00;;;;;;;2.20;1.50;;;16.50;99.90;;;;;;5001658;28;20680;-72
2021/05/18 12:11:26;;;;;;;1.90;1.70;;;15.90;99.90;;;;;;4998172;28;20199;-71
2021/05/18 12:13:53;;;;;;;1.70;1.60;;;15.50;99.90;;;;;;4998958;28;20211;-72
2021/05/18 12:16:24;;;;;;;2.65;1.60;;;15.30;99.90;;;;;;4996155;28;20711;-71
2021/05/18 12:18:56;;;;;;;1.65;1.35;;;15.30;99.90;;;;;;4996612;28;20199;-72
2021/05/18 12:21:27;;;;;;;2.67;1.40;;;15.20;99.90;;;;;;5001263;28;20198;-72
2021/05/18 12:24:06;;;;;;;4.15;1.50;;;15.30;99.90;;;;;;4993555;28;20311;-71
2021/05/18 12:26:52;;;;;;;3.25;1.55;;;15.40;99.90;;;;;;4999652;28;20199;-70
2021/05/18 12:29:36;;;;;;;3.90;1.70;;;15.50;99.90;;;;;;4988468;28;20657;-72
2021/05/18 12:32:26;;;;;;;4.38;1.77;;;15.50;99.90;;;;;;4999307;28;20600;-72
2021/05/18 12:34:55;;;;;;;1.60;1.50;;;15.60;99.90;;;;;;4994124;28;20199;-72
2021/05/18 12:37:40;;;;;;;2.47;1.50;;;15.70;99.90;;;;;;4997205;28;20199;-72
2021/05/18 12:40:10;;;;;;;4.90;1.60;;;16.00;99.90;;;;;;4996294;28;20187;-70
2021/05/18 12:42:37;;;;;;;2.20;1.40;;;16.60;99.90;;;;;;4995192;28;20717;-71
2021/05/18 12:45:08;;;;;;;1.90;1.67;;;16.80;99.90;;;;;;4992082;28;20199;-70
2021/05/18 12:47:37;;;;;;;2.00;1.60;;;16.90;99.90;;;;;;4994243;28;20249;-71
2021/05/18 12:50:09;;;;;;;2.00;1.60;;;16.90;99.90;;;;;;4993006;28;20795;-73
2021/05/18 12:52:37;;;;;;;2.28;1.65;;;16.90;99.90;;;;;;5001685;28;20203;-71
2021/05/18 12:55:16;;;;;;;13.23;1.77;;;17.00;99.90;;;;;;4995951;28;20760;-73
2021/05/18 12:57:57;;;;;;;3.22;1.40;;;17.00;99.90;;;;;;4984554;28;20202;-70
2021/05/18 13:00:38;;;;;;;2.88;1.60;;;17.40;99.90;;;;;;4994258;28;20201;-72
2021/05/18 13:03:13;;;;;;;1.58;1.42;;;17.20;99.90;;;;;;4996773;28;20210;-70
2021/05/18 13:05:41;;;;;;;2.20;1.52;;;17.00;99.90;;;;;;4996243;28;20230;-69
2021/05/18 13:08:11;;;;;;;4.60;1.55;;;17.50;99.90;;;;;;4997757;28;20293;-72
2021/05/18 13:10:50;;;;;;;3.55;1.50;;;17.50;99.90;;;;;;4993224;28;20540;-72
2021/05/18 13:13:18;;;;;;;2.25;1.50;;;17.40;99.90;;;;;;4998218;28;20191;-72
2021/05/18 13:15:43;;;;;;;3.78;1.48;;;17.90;99.90;;;;;;4994765;28;20199;-71
2021/05/18 13:18:10;;;;;;;2.58;1.50;;;18.60;99.90;;;;;;4995771;28;20492;-74
2021/05/18 13:20:54;;;;;;;1.60;1.50;;;18.70;99.90;;;;;;4993952;28;20704;-71
2021/05/18 13:28:36;;;;;;;1.38;1.10;;;19.10;99.90;;;;;;4996326;28;20345;-73
2021/05/18 13:31:02;;;;;;;1.73;1.27;;;19.00;99.90;;;;;;4998624;28;20297;-73
2021/05/18 13:33:28;;;;;;;1.45;1.20;;;18.70;99.90;;;;;;4991750;28;20214;-72
2021/05/18 13:36:22;;;;;;;1.30;1.20;;;18.90;99.90;;;;;;4992793;28;20215;-74
2021/05/18 13:38:47;;;;;;;2.08;1.10;;;18.50;99.90;;;;;;4997669;28;20286;-73
2021/05/18 13:41:14;;;;;;;1.63;1.10;;;17.90;99.90;;;;;;4995995;28;20286;-74
2021/05/18 13:43:40;;;;;;;1.20;1.10;;;17.40;99.90;;;;;;4994322;28;20851;-74
2021/05/18 13:46:06;;;;;;;1.48;1.10;;;17.10;99.90;;;;;;5005119;28;20229;-73
2021/05/18 13:48:32;;;;;;;1.75;1.20;;;17.40;99.90;;;;;;4994139;28;20219;-74
2021/05/18 13:50:58;;;;;;;1.08;0.98;;;17.90;99.90;;;;;;4990899;28;20209;-72
2021/05/18 13:53:24;;;;;;;1.60;1.00;;;18.80;99.90;;;;;;4994460;28;20203;-74
2021/05/18 13:55:50;;;;;;;10.68;1.65;;;19.50;99.90;;;;;;4997347;28;20206;-73
2021/05/18 13:58:17;;;;;;;1.05;0.95;;;19.80;99.90;;;;;;4992080;28;20631;-71
2021/05/18 14:00:43;;;;;;;1.25;0.80;;;19.90;99.90;;;;;;4999268;28;20205;-72
2021/05/18 14:03:08;;;;;;;1.00;0.90;;;19.90;99.90;;;;;;5003241;28;20207;-75
2021/05/18 14:05:34;;;;;;;1.33;1.00;;;20.10;99.90;;;;;;4997183;28;20235;-74
2021/05/18 14:08:23;;;;;;;1.10;1.00;;;20.00;99.90;;;;;;4997819;28;20257;-70
2021/05/18 14:10:50;;;;;;;2.33;0.98;;;19.70;99.90;;;;;;4995544;28;20253;-71
2021/05/18 14:13:18;;;;;;;1.73;0.90;;;19.80;99.90;;;;;;4993162;28;20211;-73
2021/05/18 14:15:44;;;;;;;0.80;0.80;;;20.20;99.80;;;;;;4996755;28;20315;-73
2021/05/18 14:18:11;;;;;;;1.10;1.00;;;20.30;96.70;;;;;;4991332;28;20302;-72
2021/05/18 14:20:37;;;;;;;0.80;0.80;;;20.10;97.10;;;;;;4993293;28;20226;-73
2021/05/18 14:23:04;;;;;;;1.48;1.00;;;20.00;97.70;;;;;;4993205;28;20298;-75
2021/05/18 14:25:30;;;;;;;3.42;0.90;;;20.10;97.70;;;;;;4992548;28;20699;-70
2021/05/18 14:27:56;;;;;;;0.90;0.85;;;20.20;97.30;;;;;;4990268;28;20202;-72
2021/05/18 14:30:23;;;;;;;1.92;1.40;;;20.10;96.20;;;;;;4992216;28;20231;-71
2021/05/18 14:32:49;;;;;;;1.50;1.00;;;21.00;95.20;;;;;;4992598;28;21081;-73
2021/05/18 14:35:15;;;;;;;1.75;0.60;;;21.30;95.90;;;;;;4993055;28;20210;-73
2021/05/18 14:37:43;;;;;;;1.98;0.90;;;21.00;91.30;;;;;;4994704;28;20195;-73
2021/05/18 14:45:38;;;;;;;0.80;0.80;;;19.50;97.30;;;;;;4982770;28;20560;-71
2021/05/18 14:56:02;;;;;;;1.10;0.90;;;18.30;99.90;;;;;;4996969;28;21011;-72
2021/05/18 14:58:28;;;;;;;1.23;1.13;;;18.40;99.90;;;;;;4993950;28;20195;-71
2021/05/18 15:00:55;;;;;;;1.90;1.05;;;18.60;99.90;;;;;;4993979;28;20573;-71
2021/05/18 15:03:21;;;;;;;1.73;1.10;;;18.80;99.90;;;;;;4995686;28;20677;-73
2021/05/18 15:05:46;;;;;;;1.00;0.90;;;19.70;97.80;;;;;;4994078;28;20223;-73
2021/05/18 15:08:12;;;;;;;2.80;0.77;;;20.50;98.00;;;;;;4999385;28;20191;-73
2021/05/18 15:10:40;;;;;;;1.58;1.00;;;20.60;95.30;;;;;;5000478;28;20206;-73
2021/05/18 15:13:06;;;;;;;0.98;0.82;;;20.10;96.30;;;;;;4996744;28;20195;-72
2021/05/18 15:15:32;;;;;;;0.70;0.70;;;19.50;97.40;;;;;;4996951;28;20206;-72
2021/05/18 15:17:58;;;;;;;1.10;0.90;;;19.00;95.60;;;;;;4993467;28;20325;-71
2021/05/18 15:20:25;;;;;;;2.10;0.90;;;18.80;97.00;;;;;;4996959;28;20301;-72
2021/05/18 15:22:51;;;;;;;0.85;0.80;;;19.10;98.30;;;;;;4990970;28;20230;-73
2021/05/18 15:25:17;;;;;;;1.33;0.90;;;19.40;97.00;;;;;;4989167;28;20211;-72
2021/05/18 15:27:43;;;;;;;0.90;0.80;;;19.10;97.60;;;;;;4986144;28;20199;-71
2021/05/18 15:30:11;;;;;;;1.00;0.80;;;19.20;97.80;;;;;;4990663;28;20200;-73
2021/05/18 15:32:37;;;;;;;2.33;1.55;;;19.30;97.80;;;;;;4990487;28;20206;-71
2021/05/18 15:35:04;;;;;;;1.73;1.00;;;19.50;97.50;;;;;;4987542;28;20646;-74
2021/05/18 15:37:29;;;;;;;1.88;1.00;;;19.30;96.80;;;;;;4993531;28;20276;-72
2021/05/18 15:39:55;;;;;;;1.05;0.90;;;19.20;97.20;;;;;;4995264;28;20311;-71
2021/05/18 15:42:21;;;;;;;1.23;0.90;;;19.00;97.80;;;;;;4998730;28;20210;-73
2021/05/18 15:44:46;;;;;;;1.13;0.90;;;18.80;99.40;;;;;;4993826;28;20206;-71
2021/05/18 15:47:14;;;;;;;2.53;0.95;;;18.70;98.90;;;;;;4992414;28;20202;-73
2021/05/18 15:49:40;;;;;;;5.03;1.20;;;18.90;99.20;;;;;;4991687;28;20244;-73
2021/05/18 15:52:05;;;;;;;5.25;2.03;;;19.10;99.40;;;;;;4990461;28;20302;-72
2021/05/18 15:54:31;;;;;;;10.00;2.95;;;19.40;97.70;;;;;;4983653;28;20871;-72
2021/05/18 15:56:57;;;;;;;8.43;2.33;;;19.30;98.60;;;;;;4987850;28;20198;-71
2021/05/18 15:59:24;;;;;;;4.57;1.48;;;19.10;99.30;;;;;;4991463;28;20535;-74
2021/05/18 16:01:49;;;;;;;1.95;1.25;;;18.60;99.40;;;;;;4984761;28;20214;-70
2021/05/18 16:04:15;;;;;;;2.88;1.55;;;18.10;98.80;;;;;;4984882;28;20195;-72
2021/05/18 16:06:43;;;;;;;2.17;1.30;;;18.10;99.90;;;;;;4996994;28;20230;-71
2021/05/18 16:09:09;;;;;;;5.53;1.80;;;18.30;99.90;;;;;;4988571;28;20219;-72
2021/05/18 16:11:36;;;;;;;2.28;1.10;;;18.60;99.90;;;;;;4992947;28;20199;-70
2021/05/18 16:14:02;;;;;;;4.93;1.50;;;18.60;99.90;;;;;;4992226;28;20217;-70
2021/05/18 16:16:28;;;;;;;2.03;1.60;;;18.30;99.90;;;;;;4997303;28;20278;-72
2021/05/18 16:18:54;;;;;;;1.45;1.23;;;18.20;99.90;;;;;;4995715;28;20231;-71
2021/05/18 16:21:21;;;;;;;1.77;1.40;;;18.10;99.90;;;;;;4996873;28;20202;-72
2021/05/18 16:23:49;;;;;;;4.50;2.10;;;18.00;99.90;;;;;;4986933;28;20211;-72
2021/05/18 16:26:16;;;;;;;3.00;1.35;;;17.90;99.90;;;;;;4993772;28;20213;-71
2021/05/18 16:28:42;;;;;;;2.65;1.33;;;18.10;99.90;;;;;;4992069;28;21107;-72
2021/05/18 16:31:08;;;;;;;3.15;1.65;;;18.20;99.90;;;;;;4988108;28;20194;-71
2021/05/18 16:33:39;;;;;;;1.70;1.20;;;18.20;99.90;;;;;;4991826;28;20221;-72
2021/05/18 16:36:06;;;;;;;1.75;1.50;;;18.30;99.90;;;;;;4991335;28;20240;-72
2021/05/18 16:38:33;;;;;;;1.52;1.13;;;18.30;99.90;;;;;;4996012;28;20218;-72
2021/05/18 16:40:59;;;;;;;2.92;1.38;;;18.10;99.90;;;;;;4994722;28;20251;-72
2021/05/18 16:43:27;;;;;;;1.50;1.40;;;18.20;99.90;;;;;;4992757;28;20689;-72
2021/05/18 16:45:54;;;;;;;1.63;1.40;;;18.00;99.90;;;;;;4995349;28;20742;-71
2021/05/18 16:48:22;;;;;;;2.08;1.40;;;17.70;99.90;;;;;;4998959;28;20338;-70
2021/05/18 16:50:48;;;;;;;2.20;1.48;;;17.50;99.90;;;;;;4995234;28;20191;-72
2021/05/18 16:53:14;;;;;;;1.63;1.40;;;17.50;99.90;;;;;;4995518;28;20199;-70
2021/05/18 16:55:41;;;;;;;2.10;1.35;;;17.70;99.90;;;;;;4995557;28;20210;-73
2021/05/18 16:58:07;;;;;;;1.80;1.42;;;17.70;99.90;;;;;;4989572;28;20203;-71
2021/05/18 17:00:34;;;;;;;2.08;1.30;;;17.50;99.90;;;;;;4985825;28;21082;-71
2021/05/18 17:03:01;;;;;;;3.60;1.35;;;16.80;99.90;;;;;;4991018;28;20194;-73
2021/05/18 17:05:26;;;;;;;1.50;1.38;;;16.20;99.90;;;;;;4995395;28;20214;-73
2021/05/18 17:07:53;;;;;;;1.90;1.65;;;15.70;99.90;;;;;;4993078;28;20203;-72
2021/05/18 17:10:22;;;;;;;2.47;1.70;;;15.40;99.90;;;;;;4988230;28;20321;-73
2021/05/18 17:12:49;;;;;;;4.50;2.15;;;15.20;99.90;;;;;;4988378;28;20277;-73
2021/05/18 17:15:15;;;;;;;3.25;2.22;;;15.10;99.90;;;;;;4994117;28;20724;-72
2021/05/18 17:17:41;;;;;;;3.55;1.67;;;15.00;99.90;;;;;;4990224;28;20192;-72
2021/05/18 17:20:08;;;;;;;3.65;1.77;;;14.90;99.90;;;;;;4995261;28;20879;-72
2021/05/18 17:22:34;;;;;;;3.78;1.50;;;15.00;99.90;;;;;;4991043;28;20588;-73
2021/05/18 17:25:00;;;;;;;2.40;1.50;;;15.00;99.90;;;;;;4989752;28;20206;-72
2021/05/18 17:27:26;;;;;;;2.95;1.83;;;14.80;99.90;;;;;;4989619;28;20199;-72
2021/05/18 17:29:51;;;;;;;3.50;1.60;;;14.70;99.90;;;;;;4994642;28;20226;-72
2021/05/18 17:32:17;;;;;;;2.10;1.60;;;14.70;99.90;;;;;;4990191;28;20203;-73
2021/05/18 17:34:43;;;;;;;1.98;1.48;;;14.70;99.90;;;;;;4989044;28;20241;-72
2021/05/18 17:37:09;;;;;;;2.00;1.40;;;14.60;99.90;;;;;;4989588;28;20202;-72
2021/05/18 17:39:37;;;;;;;4.18;1.67;;;14.70;99.90;;;;;;4990488;28;20551;-73
2021/05/18 17:42:06;;;;;;;2.70;1.55;;;14.70;99.90;;;;;;4992376;28;20187;-73
2021/05/18 17:44:32;;;;;;;1.90;1.60;;;14.60;99.90;;;;;;4988865;28;20693;-73
2021/05/18 17:46:58;;;;;;;4.25;1.38;;;14.60;99.90;;;;;;4987473;28;20331;-73
2021/05/18 17:49:24;;;;;;;1.90;1.35;;;14.50;99.90;;;;;;4997939;28;21175;-73
2021/05/18 17:51:50;;;;;;;2.28;1.63;;;14.40;99.90;;;;;;4998595;28;20257;-73
2021/05/18 17:54:17;;;;;;;2.20;1.58;;;14.30;99.90;;;;;;4995275;28;20226;-72
2021/05/18 17:56:43;;;;;;;4.82;1.70;;;14.30;99.90;;;;;;4990193;28;20616;-73
2021/05/18 17:59:09;;;;;;;2.00;1.45;;;14.20;99.90;;;;;;4993610;28;20206;-71
2021/05/18 18:01:35;;;;;;;4.57;1.60;;;14.20;99.90;;;;;;4994741;28;20203;-71
2021/05/18 18:04:02;;;;;;;4.80;1.65;;;14.20;99.90;;;;;;4998622;28;20221;-73
2021/05/18 18:06:28;;;;;;;2.85;1.50;;;14.10;99.90;;;;;;4991479;28;20237;-70
2021/05/18 18:08:56;;;;;;;2.05;1.67;;;14.00;99.90;;;;;;4990712;28;20207;-71
2021/05/18 18:11:22;;;;;;;5.90;2.00;;;14.00;99.90;;;;;;4993985;28;20821;-71